createdAt,value
2023-01-17T00:07:13.330Z,27.77
2023-01-17T00:17:15.577Z,28.33
2023-01-17T00:27:17.354Z,27.70
2023-01-17T00:37:19.026Z,29.10
2023-01-17T00:47:41.049Z,30.63
2023-01-17T00:58:04.462Z,26.77
2023-01-17T01:08:42.357Z,28.37
2023-01-17T01:19:08.396Z,27.33
2023-01-17T01:29:29.835Z,25.35
2023-01-17T01:39:37.423Z,27.58
2023-01-17T01:49:48.890Z,24.08
2023-01-17T01:59:57.955Z,27.00
2023-01-17T02:10:00.940Z,22.42
2023-01-17T02:20:26.971Z,25.73
2023-01-17T02:30:48.403Z,22.15
2023-01-17T02:40:55.981Z,24.27
2023-01-17T02:51:13.687Z,25.00
2023-01-17T03:01:43.382Z,25.58
2023-01-17T03:11:47.448Z,25.38
2023-01-17T03:21:50.592Z,23.50
2023-01-17T03:31:52.336Z,22.30
2023-01-17T03:41:55.059Z,16.88
2023-01-17T03:51:56.744Z,16.60
2023-01-17T04:01:58.518Z,17.48
2023-01-17T04:12:03.801Z,15.98
2023-01-17T04:22:05.575Z,15.48
2023-01-17T04:32:07.975Z,14.43
2023-01-17T04:42:09.720Z,15.25
2023-01-17T04:52:11.838Z,11.18
2023-01-17T05:02:16.231Z,12.30
2023-01-17T05:22:16.921Z,9.15
2023-01-17T05:32:18.711Z,9.47
2023-01-17T05:42:37.031Z,9.05
2023-01-17T05:52:43.105Z,8.55
2023-01-17T06:02:47.388Z,11.85
2023-01-17T06:13:05.211Z,12.02
2023-01-17T06:23:14.972Z,11.88
2023-01-17T06:33:17.866Z,11.77
2023-01-17T06:43:19.836Z,6.20
2023-01-17T06:53:21.804Z,6.03
2023-01-17T07:03:27.443Z,6.03
2023-01-17T07:13:30.893Z,6.78
2023-01-17T07:23:42.007Z,6.60
2023-01-17T07:33:51.938Z,6.25
2023-01-17T07:43:56.254Z,7.45
2023-01-17T07:54:04.102Z,6.43
2023-01-17T08:04:05.927Z,5.45
2023-01-17T08:14:07.707Z,3.13
2023-01-17T08:24:15.018Z,2.72
2023-01-17T08:34:18.187Z,2.10
2023-01-17T08:44:22.550Z,1.20
2023-01-17T08:54:29.331Z,1.13
2023-01-17T09:04:31.081Z,1.27
2023-01-17T09:14:40.157Z,0.63
2023-01-17T09:24:42.273Z,0.57
2023-01-17T09:34:47.106Z,0.73
2023-01-17T09:44:55.935Z,0.65
2023-01-17T09:54:57.724Z,1.02
2023-01-17T10:05:35.069Z,0.80
2023-01-17T10:15:56.539Z,1.23
2023-01-17T10:26:11.602Z,0.90
2023-01-17T10:36:28.258Z,1.10
2023-01-17T10:46:45.172Z,1.10
2023-01-17T10:56:48.761Z,1.40
2023-01-17T11:07:10.722Z,1.50
2023-01-17T11:17:13.626Z,0.80
2023-01-17T11:28:01.809Z,0.90
2023-01-17T11:38:07.119Z,0.75
2023-01-17T11:48:12.735Z,1.15
2023-01-17T11:58:15.552Z,1.00
2023-01-17T12:09:01.407Z,1.27
2023-01-17T12:19:27.165Z,0.90
2023-01-17T12:29:42.274Z,1.23
2023-01-17T12:39:54.831Z,1.30
2023-01-17T13:00:24.437Z,1.58
2023-01-17T13:10:37.931Z,1.45
2023-01-17T13:31:26.854Z,1.98
2023-01-17T13:41:52.843Z,3.20
2023-01-17T13:52:23.377Z,2.45
2023-01-17T14:02:36.469Z,2.58
2023-01-17T14:23:33.762Z,2.80
2023-01-17T14:33:39.948Z,2.75
2023-01-17T14:43:50.620Z,2.60
2023-01-17T14:53:57.320Z,2.55
2023-01-17T15:04:06.554Z,3.17
2023-01-17T15:14:15.119Z,3.50
2023-01-17T15:24:45.229Z,3.65
2023-01-17T15:34:49.381Z,4.28
2023-01-17T15:44:57.233Z,4.18
2023-01-17T16:11:55.655Z,3.80
2023-01-17T16:21:59.156Z,3.05
2023-01-17T16:32:08.725Z,3.53
2023-01-17T16:42:25.580Z,2.97
2023-01-17T16:52:28.555Z,3.17
2023-01-17T17:02:30.837Z,3.60
2023-01-17T17:12:33.809Z,3.00
2023-01-17T17:33:08.023Z,3.33
2023-01-17T17:43:12.087Z,3.28
2023-01-17T17:53:35.719Z,3.90
2023-01-17T18:03:39.143Z,5.07
2023-01-17T18:24:22.749Z,7.10
2023-01-17T18:34:29.392Z,6.72
2023-01-17T18:44:32.813Z,4.43
2023-01-17T18:54:35.082Z,3.63
2023-01-17T19:05:20.466Z,6.43
2023-01-17T19:15:37.929Z,6.35
2023-01-17T19:25:44.793Z,5.97
2023-01-17T19:35:47.737Z,4.95
2023-01-17T19:46:01.491Z,4.07
2023-01-17T19:56:25.337Z,3.80
2023-01-17T20:06:37.286Z,2.55
2023-01-17T20:16:41.549Z,3.00
2023-01-17T20:26:45.475Z,2.13
2023-01-17T20:36:51.413Z,2.05
2023-01-17T20:46:54.173Z,2.60
2023-01-17T20:56:58.543Z,2.33
2023-01-17T21:07:06.261Z,3.25
2023-01-17T21:17:16.460Z,3.20
2023-01-17T21:27:22.139Z,3.03
2023-01-17T21:37:31.621Z,3.28
2023-01-17T21:47:46.731Z,4.10
2023-01-17T21:58:15.881Z,4.00
2023-01-17T22:08:21.182Z,3.47
2023-01-17T22:18:31.655Z,3.95
2023-01-17T22:28:47.541Z,4.32
2023-01-17T22:38:51.040Z,3.75
2023-01-17T22:48:54.570Z,3.88
2023-01-17T22:58:57.425Z,3.50
2023-01-17T23:19:25.002Z,3.25
2023-01-17T23:29:30.984Z,2.40
2023-01-17T23:39:32.899Z,2.38
2023-01-17T23:49:48.643Z,2.60
2023-01-17T23:59:50.835Z,2.20
